createdAt,value
2022-10-09T00:01:47.946Z,4.00
2022-10-09T00:04:19.655Z,3.90
2022-10-09T00:06:51.416Z,3.92
2022-10-09T00:09:26.254Z,3.80
2022-10-09T00:11:57.915Z,3.70
2022-10-09T00:14:29.703Z,3.97
2022-10-09T00:17:01.427Z,3.88
2022-10-09T00:19:35.802Z,3.97
2022-10-09T00:22:07.490Z,4.00
2022-10-09T00:24:39.191Z,3.63
2022-10-09T00:27:10.898Z,4.15
2022-10-09T00:29:42.595Z,4.28
2022-10-09T00:32:17.811Z,3.95
2022-10-09T00:34:50.717Z,3.90
2022-10-09T00:37:24.387Z,4.35
2022-10-09T00:39:56.137Z,4.40
2022-10-09T00:42:27.832Z,4.80
2022-10-09T00:45:02.647Z,3.70
2022-10-09T00:47:49.367Z,4.03
2022-10-09T00:50:38.499Z,3.97
2022-10-09T00:53:15.788Z,4.32
2022-10-09T00:55:47.671Z,5.45
2022-10-09T00:58:19.796Z,4.57
2022-10-09T01:00:54.746Z,4.57
2022-10-09T01:06:52.311Z,4.05
2022-10-09T01:09:32.404Z,4.22
2022-10-09T01:12:39.204Z,3.83
2022-10-09T01:15:27.684Z,4.45
2022-10-09T01:18:30.954Z,4.60
2022-10-09T01:21:18.244Z,4.43
2022-10-09T01:24:31.949Z,4.82
2022-10-09T01:27:09.166Z,4.70
2022-10-09T01:29:55.432Z,5.05
2022-10-09T01:32:37.460Z,4.78
2022-10-09T01:35:12.486Z,4.90
2022-10-09T01:37:48.029Z,5.20
2022-10-09T01:40:21.367Z,4.60
2022-10-09T01:42:53.477Z,5.10
2022-10-09T01:45:39.173Z,4.65
2022-10-09T01:48:23.750Z,4.47
2022-10-09T01:51:01.812Z,4.95
2022-10-09T01:53:36.737Z,4.70
2022-10-09T01:56:14.113Z,4.72
2022-10-09T01:59:18.868Z,4.82
2022-10-09T02:01:52.036Z,4.65
2022-10-09T02:04:24.728Z,4.82
2022-10-09T02:06:56.937Z,5.00
2022-10-09T02:09:30.272Z,4.38
2022-10-09T02:12:07.383Z,4.68
2022-10-09T02:14:39.575Z,4.82
2022-10-09T02:17:21.888Z,4.70
2022-10-09T02:20:08.398Z,4.57
2022-10-09T02:22:41.085Z,4.90
2022-10-09T02:25:13.419Z,4.97
2022-10-09T02:27:46.859Z,4.82
2022-10-09T02:30:20.858Z,5.55
2022-10-09T02:32:53.701Z,4.80
2022-10-09T02:35:25.990Z,4.60
2022-10-09T02:37:57.713Z,4.88
2022-10-09T02:40:29.693Z,4.80
2022-10-09T02:43:02.269Z,5.18
2022-10-09T02:45:36.838Z,5.20
2022-10-09T02:48:12.211Z,5.30
2022-10-09T02:50:43.912Z,5.03
2022-10-09T02:53:15.572Z,5.03
2022-10-09T02:55:47.265Z,5.13
2022-10-09T02:58:19.088Z,4.82
2022-10-09T03:00:53.031Z,5.20
2022-10-09T03:03:24.801Z,5.35
2022-10-09T03:06:13.769Z,4.97
2022-10-09T03:08:47.562Z,5.03
2022-10-09T03:11:21.464Z,6.07
2022-10-09T03:13:56.253Z,5.20
2022-10-09T03:19:00.154Z,5.32
2022-10-09T03:21:31.844Z,4.80
2022-10-09T03:24:03.589Z,5.13
2022-10-09T03:26:35.258Z,4.70
2022-10-09T03:29:06.944Z,5.00
2022-10-09T03:31:54.087Z,5.38
2022-10-09T03:34:27.943Z,4.70
2022-10-09T03:36:59.519Z,5.70
2022-10-09T03:39:31.581Z,4.60
2022-10-09T03:42:03.360Z,5.30
2022-10-09T03:44:35.076Z,5.22
2022-10-09T03:47:07.255Z,5.60
2022-10-09T03:49:38.931Z,5.88
2022-10-09T03:52:10.590Z,5.10
2022-10-09T03:54:42.286Z,5.43
2022-10-09T03:57:15.940Z,5.60
2022-10-09T03:59:47.613Z,5.70
2022-10-09T04:02:19.325Z,5.43
2022-10-09T04:04:51.083Z,5.43
2022-10-09T04:07:28.114Z,5.57
2022-10-09T04:09:59.931Z,6.47
2022-10-09T04:12:31.697Z,5.50
2022-10-09T04:15:04.322Z,6.30
2022-10-09T04:17:36.525Z,5.63
2022-10-09T04:20:09.771Z,5.88
2022-10-09T04:22:41.592Z,6.20
2022-10-09T04:25:13.446Z,5.70
2022-10-09T04:27:45.157Z,6.57
2022-10-09T04:30:20.817Z,6.93
2022-10-09T04:32:52.579Z,5.97
2022-10-09T04:35:24.308Z,6.28
2022-10-09T04:37:56.045Z,6.28
2022-10-09T04:40:27.695Z,6.28
2022-10-09T04:42:59.472Z,6.65
2022-10-09T04:45:31.315Z,6.45
2022-10-09T04:48:03.176Z,7.53
2022-10-09T04:50:39.008Z,6.17
2022-10-09T04:53:10.746Z,6.18
2022-10-09T04:55:46.483Z,6.05
2022-10-09T04:58:18.161Z,6.22
2022-10-09T05:00:49.850Z,7.03
2022-10-09T05:03:21.632Z,6.03
2022-10-09T05:05:53.321Z,6.32
2022-10-09T05:08:25.040Z,6.10
2022-10-09T05:11:05.428Z,6.47
2022-10-09T05:13:40.393Z,6.45
2022-10-09T05:16:15.274Z,5.82
2022-10-09T05:18:49.460Z,7.03
2022-10-09T05:21:21.669Z,5.90
2022-10-09T05:23:54.868Z,5.75
2022-10-09T05:26:27.784Z,6.22
2022-10-09T05:28:59.742Z,6.78
2022-10-09T05:31:31.947Z,6.97
2022-10-09T05:34:09.704Z,6.53
2022-10-09T05:36:41.385Z,6.40
2022-10-09T05:39:13.240Z,6.10
2022-10-09T05:41:44.982Z,6.90
2022-10-09T05:44:16.767Z,6.70
2022-10-09T05:46:48.525Z,5.80
2022-10-09T05:49:20.313Z,5.80
2022-10-09T05:51:52.027Z,5.78
2022-10-09T05:54:23.816Z,5.28
2022-10-09T05:56:55.699Z,5.53
2022-10-09T05:59:27.942Z,5.07
2022-10-09T06:02:00.047Z,4.78
2022-10-09T06:04:31.961Z,5.28
2022-10-09T06:07:03.732Z,5.13
2022-10-09T06:09:35.466Z,5.00
2022-10-09T06:12:07.663Z,5.22
2022-10-09T06:14:39.359Z,5.03
2022-10-09T06:17:11.145Z,4.35
2022-10-09T06:19:42.877Z,4.85
2022-10-09T06:22:14.520Z,4.95
2022-10-09T06:24:46.204Z,4.90
2022-10-09T06:27:17.911Z,4.82
2022-10-09T06:29:49.639Z,4.40
2022-10-09T06:32:21.429Z,4.75
2022-10-09T06:34:53.532Z,4.22
2022-10-09T06:37:25.247Z,4.30
2022-10-09T06:39:56.979Z,4.10
2022-10-09T06:42:28.720Z,3.92
2022-10-09T06:47:36.916Z,3.60
2022-10-09T06:50:09.358Z,4.38
2022-10-09T06:52:41.039Z,4.28
2022-10-09T06:55:15.786Z,4.25
2022-10-09T06:57:47.498Z,4.32
2022-10-09T07:00:19.203Z,4.97
2022-10-09T07:02:51.524Z,4.00
2022-10-09T07:05:23.925Z,4.82
2022-10-09T07:07:56.468Z,4.95
2022-10-09T07:10:28.159Z,4.53
2022-10-09T07:12:59.846Z,4.82
2022-10-09T07:15:31.679Z,5.60
2022-10-09T07:18:03.458Z,5.40
2022-10-09T07:20:36.384Z,5.03
2022-10-09T07:23:10.003Z,5.25
2022-10-09T07:25:44.407Z,4.88
2022-10-09T07:28:16.212Z,4.90
2022-10-09T07:30:48.116Z,4.45
2022-10-09T07:33:20.308Z,4.45
2022-10-09T07:35:56.570Z,5.10
2022-10-09T07:38:29.106Z,4.75
2022-10-09T07:41:03.113Z,4.70
2022-10-09T07:43:36.986Z,5.40
2022-10-09T07:46:12.863Z,5.25
2022-10-09T07:48:45.868Z,4.53
2022-10-09T07:51:20.628Z,4.43
2022-10-09T07:53:53.241Z,4.40
2022-10-09T07:56:31.164Z,4.00
2022-10-09T07:59:06.250Z,4.30
2022-10-09T08:01:39.133Z,4.05
2022-10-09T08:04:10.921Z,3.97
2022-10-09T08:06:42.783Z,4.07
2022-10-09T08:09:14.452Z,4.97
2022-10-09T08:11:49.025Z,4.00
2022-10-09T08:14:20.783Z,4.18
2022-10-09T08:16:52.683Z,4.15
2022-10-09T08:19:27.408Z,4.07
2022-10-09T08:22:02.639Z,4.15
2022-10-09T08:24:39.081Z,4.00
2022-10-09T08:27:11.971Z,4.13
2022-10-09T08:29:43.622Z,3.97
2022-10-09T08:32:15.329Z,4.40
2022-10-09T08:34:48.248Z,4.00
2022-10-09T08:37:20.016Z,4.15
2022-10-09T08:39:51.895Z,4.20
2022-10-09T08:42:42.956Z,3.40
2022-10-09T08:45:18.268Z,3.50
2022-10-09T08:48:01.257Z,3.90
2022-10-09T08:50:38.034Z,3.30
2022-10-09T08:53:47.418Z,3.70
2022-10-09T08:56:19.378Z,2.92
2022-10-09T08:58:51.085Z,3.15
2022-10-09T09:02:10.932Z,3.08
2022-10-09T09:05:05.173Z,2.88
2022-10-09T09:07:54.863Z,3.03
2022-10-09T09:10:32.223Z,3.05
2022-10-09T09:13:39.518Z,2.90
2022-10-09T09:16:21.321Z,3.28
2022-10-09T09:19:03.715Z,3.08
2022-10-09T09:21:48.525Z,3.40
2022-10-09T09:24:39.837Z,3.15
2022-10-09T09:27:16.131Z,3.03
2022-10-09T09:30:15.259Z,3.65
2022-10-09T09:32:56.999Z,3.45
2022-10-09T09:35:47.065Z,3.30
2022-10-09T09:38:18.805Z,3.25
2022-10-09T09:40:51.320Z,2.75
2022-10-09T09:43:25.707Z,2.80
2022-10-09T09:46:00.694Z,3.45
2022-10-09T09:48:34.727Z,3.05
2022-10-09T09:51:27.906Z,3.80
2022-10-09T09:54:15.296Z,2.30
2022-10-09T09:57:10.998Z,2.70
2022-10-09T09:59:43.155Z,2.17
2022-10-09T10:02:24.045Z,1.75
2022-10-09T10:04:59.704Z,1.92
2022-10-09T10:07:34.609Z,2.00
2022-10-09T10:10:15.612Z,2.10
2022-10-09T10:12:53.585Z,2.03
2022-10-09T10:15:28.645Z,1.98
2022-10-09T10:18:16.082Z,1.85
2022-10-09T10:20:57.003Z,2.28
2022-10-09T10:23:44.863Z,2.28
2022-10-09T10:26:31.994Z,3.28
2022-10-09T10:29:18.577Z,1.73
2022-10-09T10:32:16.007Z,2.15
2022-10-09T10:34:57.735Z,1.80
2022-10-09T10:38:07.085Z,1.80
2022-10-09T10:40:47.162Z,2.45
2022-10-09T10:43:32.715Z,1.92
2022-10-09T10:46:25.597Z,1.90
2022-10-09T10:49:00.042Z,1.73
2022-10-09T10:51:55.793Z,2.10
2022-10-09T10:54:40.545Z,1.90
2022-10-09T10:57:30.819Z,1.73
2022-10-09T11:00:07.859Z,2.05
2022-10-09T11:02:49.145Z,2.40
2022-10-09T11:05:25.482Z,2.22
2022-10-09T11:08:20.741Z,1.98
2022-10-09T11:11:16.932Z,2.00
2022-10-09T11:14:00.303Z,1.60
2022-10-09T11:16:38.025Z,1.60
2022-10-09T11:19:47.036Z,2.20
2022-10-09T11:22:32.132Z,1.67
2022-10-09T11:25:10.514Z,2.03
2022-10-09T11:28:03.571Z,1.80
2022-10-09T11:30:44.120Z,2.05
2022-10-09T11:33:43.986Z,2.25
2022-10-09T11:36:25.877Z,2.00
2022-10-09T11:39:06.361Z,1.20
2022-10-09T11:41:39.210Z,1.75
2022-10-09T11:44:52.005Z,1.73
2022-10-09T11:47:58.920Z,1.45
2022-10-09T11:50:36.451Z,1.40
2022-10-09T11:53:18.663Z,1.13
2022-10-09T11:56:02.313Z,1.30
2022-10-09T11:58:34.842Z,1.70
2022-10-09T12:01:40.686Z,1.40
2022-10-09T12:04:12.653Z,1.52
2022-10-09T12:07:00.741Z,1.25
2022-10-09T12:09:37.872Z,1.50
2022-10-09T12:12:15.554Z,1.20
2022-10-09T12:14:50.421Z,1.50
2022-10-09T12:17:22.120Z,1.48
2022-10-09T12:20:00.915Z,1.60
2022-10-09T12:22:42.867Z,1.50
2022-10-09T12:25:26.491Z,1.90
2022-10-09T12:28:00.376Z,1.65
2022-10-09T12:30:47.535Z,1.73
2022-10-09T12:33:34.951Z,1.30
2022-10-09T12:36:15.671Z,1.60
2022-10-09T12:38:49.512Z,1.33
2022-10-09T12:41:30.132Z,1.30
2022-10-09T12:44:29.283Z,1.52
2022-10-09T12:47:14.627Z,1.40
2022-10-09T12:50:18.502Z,1.10
2022-10-09T12:52:57.972Z,1.15
2022-10-09T12:55:41.979Z,1.85
2022-10-09T12:58:23.504Z,1.27
2022-10-09T13:00:58.275Z,1.30
2022-10-09T13:03:32.820Z,1.33
2022-10-09T13:08:59.980Z,1.00
2022-10-09T13:11:33.657Z,1.00
2022-10-09T13:14:05.326Z,1.20
2022-10-09T13:16:43.187Z,1.00
2022-10-09T13:19:27.012Z,1.10
2022-10-09T13:22:07.587Z,0.90
2022-10-09T13:24:39.285Z,1.20
2022-10-09T13:27:14.694Z,0.90
2022-10-09T13:29:48.090Z,1.40
2022-10-09T13:32:24.346Z,1.10
2022-10-09T13:34:57.961Z,1.00
2022-10-09T13:37:29.738Z,0.88
2022-10-09T13:40:01.467Z,1.23
2022-10-09T13:42:39.421Z,1.48
2022-10-09T13:45:11.420Z,1.40
2022-10-09T13:47:43.083Z,1.65
2022-10-09T13:50:15.720Z,1.40
2022-10-09T13:52:47.551Z,1.52
2022-10-09T13:55:19.353Z,1.30
2022-10-09T13:57:51.671Z,1.33
2022-10-09T14:00:23.775Z,2.03
2022-10-09T14:02:55.512Z,1.10
2022-10-09T14:05:27.224Z,1.80
2022-10-09T14:07:59.219Z,1.40
2022-10-09T14:10:30.832Z,1.40
2022-10-09T14:13:02.741Z,1.48
2022-10-09T14:15:34.449Z,1.50
2022-10-09T14:18:06.445Z,1.60
2022-10-09T14:20:38.100Z,1.42
2022-10-09T14:23:09.859Z,1.20
2022-10-09T14:25:41.972Z,1.50
2022-10-09T14:28:13.759Z,1.45
2022-10-09T14:30:49.009Z,2.20
2022-10-09T14:33:20.887Z,1.70
2022-10-09T14:35:52.706Z,1.40
2022-10-09T14:38:24.848Z,1.30
2022-10-09T14:40:56.503Z,1.50
2022-10-09T14:43:28.264Z,1.55
2022-10-09T14:46:07.513Z,1.38
2022-10-09T14:48:39.997Z,1.42
2022-10-09T14:51:14.789Z,1.30
2022-10-09T14:53:47.234Z,1.50
2022-10-09T14:56:21.221Z,1.20
2022-10-09T14:58:53.867Z,1.88
2022-10-09T15:01:34.321Z,1.10
2022-10-09T15:04:07.013Z,1.50
2022-10-09T15:06:39.191Z,1.30
2022-10-09T15:09:11.128Z,1.80
2022-10-09T15:11:42.950Z,1.45
2022-10-09T15:14:14.748Z,1.55
2022-10-09T15:16:47.029Z,1.50
2022-10-09T15:19:19.119Z,1.40
2022-10-09T15:21:51.856Z,1.50
2022-10-09T15:24:23.658Z,1.33
2022-10-09T15:26:55.428Z,1.30
2022-10-09T15:29:27.154Z,1.55
2022-10-09T15:31:58.996Z,1.48
2022-10-09T15:34:30.974Z,1.50
2022-10-09T15:37:02.612Z,1.60
2022-10-09T15:39:35.121Z,1.40
2022-10-09T15:42:07.168Z,1.70
2022-10-09T15:44:41.392Z,1.42
2022-10-09T15:47:16.715Z,1.80
2022-10-09T15:49:53.228Z,1.55
2022-10-09T15:52:25.490Z,1.77
2022-10-09T15:54:57.181Z,1.92
2022-10-09T15:57:28.852Z,1.80
2022-10-09T16:00:03.215Z,2.20
2022-10-09T16:02:36.665Z,2.10
2022-10-09T16:05:09.163Z,1.90
2022-10-09T16:07:41.393Z,2.03
2022-10-09T16:10:13.104Z,2.03
2022-10-09T16:12:44.949Z,1.98
2022-10-09T16:15:16.886Z,1.92
2022-10-09T16:17:50.850Z,2.35
2022-10-09T16:20:22.676Z,2.60
2022-10-09T16:22:54.341Z,2.92
2022-10-09T16:25:26.272Z,3.50
2022-10-09T16:27:57.964Z,3.00
2022-10-09T16:30:29.728Z,3.60
2022-10-09T16:33:01.529Z,2.83
2022-10-09T16:35:33.317Z,2.58
2022-10-09T16:38:05.851Z,2.97
2022-10-09T16:43:36.739Z,2.90
2022-10-09T16:46:27.384Z,3.00
2022-10-09T16:49:01.123Z,2.55
2022-10-09T16:51:35.833Z,3.00
2022-10-09T16:56:40.375Z,3.40
2022-10-09T16:59:13.062Z,2.83
2022-10-09T17:01:46.458Z,3.30
2022-10-09T17:04:18.174Z,3.15
2022-10-09T17:06:51.269Z,3.58
2022-10-09T17:09:23.181Z,3.70
2022-10-09T17:11:57.780Z,3.90
2022-10-09T17:14:31.401Z,3.65
2022-10-09T17:17:08.014Z,4.10
2022-10-09T17:19:40.616Z,3.83
2022-10-09T17:22:12.359Z,3.90
2022-10-09T17:24:44.039Z,3.60
2022-10-09T17:27:15.928Z,3.50
2022-10-09T17:29:47.696Z,4.18
2022-10-09T17:32:22.722Z,3.60
2022-10-09T17:34:54.426Z,4.30
2022-10-09T17:37:26.251Z,4.22
2022-10-09T17:39:57.886Z,4.28
2022-10-09T17:42:29.599Z,4.10
2022-10-09T17:45:02.056Z,4.57
2022-10-09T17:47:37.010Z,4.90
2022-10-09T17:50:09.082Z,4.50
2022-10-09T17:52:40.800Z,5.00
2022-10-09T17:55:12.571Z,4.63
2022-10-09T17:57:44.356Z,5.20
2022-10-09T18:00:22.490Z,5.60
2022-10-09T18:02:54.818Z,5.70
2022-10-09T18:05:26.680Z,5.63
2022-10-09T18:08:01.158Z,5.47
2022-10-09T18:10:32.973Z,7.03
2022-10-09T18:13:06.060Z,5.32
2022-10-09T18:15:38.742Z,5.82
2022-10-09T18:18:11.565Z,5.70
2022-10-09T18:20:43.234Z,5.40
2022-10-09T18:23:17.475Z,6.22
2022-10-09T18:25:54.951Z,6.80
2022-10-09T18:30:58.925Z,6.53
2022-10-09T18:33:30.685Z,6.30
2022-10-09T18:36:09.032Z,6.32
2022-10-09T18:38:40.739Z,6.28
2022-10-09T18:41:12.569Z,6.30
2022-10-09T18:43:44.643Z,7.03
2022-10-09T18:46:20.960Z,7.28
2022-10-09T18:48:54.536Z,7.07
2022-10-09T18:51:28.588Z,6.57
2022-10-09T18:54:03.689Z,6.85
2022-10-09T18:56:36.974Z,6.65
2022-10-09T18:59:13.028Z,6.82
2022-10-09T19:01:44.795Z,6.38
2022-10-09T19:04:17.040Z,6.70
2022-10-09T19:06:52.240Z,6.95
2022-10-09T19:09:24.049Z,6.68
2022-10-09T19:11:55.925Z,6.78
2022-10-09T19:14:27.995Z,6.50
2022-10-09T19:16:59.785Z,6.20
2022-10-09T19:19:32.113Z,6.80
2022-10-09T19:22:04.781Z,6.45
2022-10-09T19:24:36.685Z,6.55
2022-10-09T19:27:08.588Z,6.35
2022-10-09T19:29:40.627Z,6.80
2022-10-09T19:32:12.371Z,6.57
2022-10-09T19:34:47.890Z,6.40
2022-10-09T19:37:26.110Z,6.85
2022-10-09T19:40:01.497Z,6.68
2022-10-09T19:42:35.617Z,6.68
2022-10-09T19:45:08.025Z,7.57
2022-10-09T19:47:43.121Z,7.32
2022-10-09T19:50:15.174Z,7.82
2022-10-09T19:52:47.094Z,6.68
2022-10-09T19:55:19.054Z,9.10
2022-10-09T19:57:51.394Z,8.30
2022-10-09T20:00:26.421Z,7.90
2022-10-09T20:02:58.188Z,8.75
2022-10-09T20:05:30.220Z,8.25
2022-10-09T20:08:04.957Z,9.10
2022-10-09T20:10:38.445Z,8.43
2022-10-09T20:13:10.158Z,8.07
2022-10-09T20:15:42.779Z,8.02
2022-10-09T20:18:14.490Z,8.60
2022-10-09T20:20:48.402Z,9.05
2022-10-09T20:23:20.431Z,8.32
2022-10-09T20:26:06.212Z,8.50
2022-10-09T20:28:41.414Z,7.38
2022-10-09T20:31:20.815Z,8.52
2022-10-09T20:33:54.396Z,8.25
2022-10-09T20:36:27.684Z,9.52
2022-10-09T20:39:01.527Z,7.95
2022-10-09T20:41:33.854Z,7.85
2022-10-09T20:44:06.301Z,8.57
2022-10-09T20:46:39.663Z,8.30
2022-10-09T20:49:16.361Z,8.43
2022-10-09T20:51:48.190Z,7.63
2022-10-09T20:54:21.462Z,7.80
2022-10-09T20:56:53.378Z,8.23
2022-10-09T20:59:25.057Z,7.80
2022-10-09T21:01:56.952Z,8.93
2022-10-09T21:04:32.146Z,8.40
2022-10-09T21:07:04.103Z,8.00
2022-10-09T21:09:36.532Z,8.43
2022-10-09T21:12:08.519Z,8.15
2022-10-09T21:14:40.291Z,8.57
2022-10-09T21:17:13.099Z,7.72
2022-10-09T21:19:44.827Z,8.02
2022-10-09T21:22:16.943Z,8.05
2022-10-09T21:24:51.401Z,7.85
2022-10-09T21:27:23.159Z,8.30
2022-10-09T21:29:54.788Z,9.52
2022-10-09T21:32:26.577Z,8.65
2022-10-09T21:34:58.221Z,8.32
2022-10-09T21:37:30.057Z,8.70
2022-10-09T21:40:01.826Z,8.75
2022-10-09T21:42:33.613Z,8.60
2022-10-09T21:45:05.728Z,8.68
2022-10-09T21:47:37.474Z,8.90
2022-10-09T21:50:09.757Z,8.52
2022-10-09T21:52:41.463Z,9.57
2022-10-09T21:55:13.111Z,8.95
2022-10-09T21:57:45.285Z,9.15
2022-10-09T22:00:17.537Z,10.57
2022-10-09T22:02:49.493Z,8.93
2022-10-09T22:05:24.094Z,9.30
2022-10-09T22:07:55.744Z,9.43
2022-10-09T22:10:27.610Z,9.60
2022-10-09T22:12:59.254Z,9.40
2022-10-09T22:15:31.002Z,9.40
2022-10-09T22:18:02.734Z,9.65
2022-10-09T22:20:34.664Z,9.93
2022-10-09T22:23:06.408Z,9.73
2022-10-09T22:25:38.536Z,9.20
2022-10-09T22:28:10.248Z,9.82
2022-10-09T22:30:41.975Z,9.25
2022-10-09T22:33:13.708Z,9.30
2022-10-09T22:35:45.812Z,9.60
2022-10-09T22:38:17.503Z,9.95
2022-10-09T22:40:52.192Z,9.57
2022-10-09T22:43:26.764Z,9.15
2022-10-09T22:45:58.445Z,9.05
2022-10-09T22:48:30.244Z,9.98
2022-10-09T22:51:04.027Z,9.50
2022-10-09T22:53:37.043Z,9.33
2022-10-09T22:56:16.011Z,9.45
2022-10-09T22:58:49.339Z,9.63
2022-10-09T23:01:29.931Z,8.52
2022-10-09T23:04:11.166Z,9.07
2022-10-09T23:06:44.599Z,8.15
2022-10-09T23:09:16.372Z,8.77
2022-10-09T23:11:48.047Z,7.60
2022-10-09T23:14:20.063Z,9.65
2022-10-09T23:16:52.064Z,8.07
2022-10-09T23:19:23.820Z,7.78
2022-10-09T23:21:55.405Z,7.45
2022-10-09T23:24:27.075Z,9.10
2022-10-09T23:26:58.762Z,8.93
2022-10-09T23:29:30.449Z,8.25
2022-10-09T23:32:02.073Z,8.85
2022-10-09T23:34:33.833Z,8.63
2022-10-09T23:37:05.541Z,9.48
2022-10-09T23:39:37.223Z,8.60
2022-10-09T23:42:08.920Z,8.40
2022-10-09T23:44:40.750Z,8.43
2022-10-09T23:47:12.496Z,8.50
2022-10-09T23:49:44.204Z,8.15
2022-10-09T23:52:15.823Z,8.85
2022-10-09T23:54:47.611Z,7.97
2022-10-09T23:57:19.235Z,8.52
2022-10-09T23:59:50.937Z,8.88
